createdAt,value
2023-04-30T00:06:06.778Z,17.63
2023-04-30T00:08:34.829Z,13.52
2023-04-30T00:11:04.722Z,16.42
2023-04-30T00:13:34.872Z,15.93
2023-04-30T00:16:02.861Z,20.35
2023-04-30T00:18:31.015Z,16.63
2023-04-30T00:20:58.615Z,13.82
2023-04-30T00:23:26.382Z,19.30
2023-04-30T00:25:53.840Z,14.13
2023-04-30T00:28:22.128Z,14.38
2023-04-30T00:30:50.843Z,16.00
2023-04-30T00:33:19.456Z,20.15
2023-04-30T00:35:49.871Z,17.95
2023-04-30T00:38:19.652Z,14.32
2023-04-30T00:40:53.739Z,17.95
2023-04-30T00:43:21.348Z,13.13
2023-04-30T00:45:50.975Z,15.95
2023-04-30T00:48:19.718Z,15.73
2023-04-30T00:50:51.449Z,14.63
2023-04-30T00:53:21.184Z,18.42
2023-04-30T00:55:51.476Z,16.20
2023-04-30T00:58:19.323Z,17.55
2023-04-30T01:00:49.146Z,16.33
2023-04-30T01:03:19.000Z,15.80
2023-04-30T01:05:48.233Z,15.82
2023-04-30T01:08:15.985Z,19.55
2023-04-30T01:10:55.179Z,17.00
2023-04-30T01:13:36.388Z,17.38
2023-04-30T01:16:20.211Z,17.02
2023-04-30T01:18:52.718Z,15.23
2023-04-30T01:21:20.879Z,18.75
2023-04-30T01:23:50.360Z,17.08
2023-04-30T01:26:28.888Z,16.02
2023-04-30T01:28:58.170Z,16.50
2023-04-30T01:31:25.876Z,17.50
2023-04-30T01:33:55.735Z,14.93
2023-04-30T01:36:32.266Z,19.52
2023-04-30T01:39:10.391Z,11.70
2023-04-30T01:41:56.343Z,15.55
2023-04-30T01:44:24.022Z,15.55
2023-04-30T01:47:14.897Z,15.63
2023-04-30T01:50:01.380Z,16.40
2023-04-30T01:52:29.442Z,14.40
2023-04-30T01:55:01.507Z,17.85
2023-04-30T01:57:31.901Z,16.08
2023-04-30T01:59:59.740Z,15.77
2023-04-30T02:02:28.005Z,18.83
2023-04-30T02:04:56.302Z,16.13
2023-04-30T02:07:38.450Z,18.77
2023-04-30T02:10:07.502Z,18.30
2023-04-30T02:12:35.468Z,29.08
2023-04-30T02:15:03.783Z,19.85
2023-04-30T02:17:35.212Z,15.40
2023-04-30T02:20:08.481Z,15.70
2023-04-30T02:22:36.662Z,15.52
2023-04-30T02:25:05.423Z,14.75
2023-04-30T02:27:33.743Z,26.05
2023-04-30T02:30:05.237Z,17.52
2023-04-30T02:32:36.583Z,15.70
2023-04-30T02:35:04.186Z,25.33
2023-04-30T02:37:32.994Z,14.52
2023-04-30T02:40:00.773Z,17.95
2023-04-30T02:42:28.664Z,14.50
2023-04-30T02:44:56.237Z,18.65
2023-04-30T02:47:23.849Z,19.73
2023-04-30T02:49:51.710Z,23.58
2023-04-30T02:52:19.647Z,21.50
2023-04-30T02:54:49.026Z,20.58
2023-04-30T02:57:18.518Z,23.00
2023-04-30T02:59:47.366Z,20.07
2023-04-30T03:02:20.801Z,20.58
2023-04-30T03:04:56.700Z,25.50
2023-04-30T03:07:27.118Z,22.77
2023-04-30T03:09:54.876Z,27.00
2023-04-30T03:12:22.736Z,24.63
2023-04-30T03:14:50.350Z,26.95
2023-04-30T03:17:21.284Z,26.33
2023-04-30T03:19:50.607Z,25.40
2023-04-30T03:22:24.321Z,29.52
2023-04-30T03:24:52.128Z,29.23
2023-04-30T03:27:19.964Z,21.55
2023-04-30T03:29:49.158Z,22.23
2023-04-30T03:32:17.245Z,24.33
2023-04-30T03:34:44.828Z,20.55
2023-04-30T03:37:12.512Z,22.10
2023-04-30T03:39:49.879Z,23.67
2023-04-30T03:44:48.990Z,18.42
2023-04-30T03:47:19.513Z,19.45
2023-04-30T03:49:49.573Z,19.98
2023-04-30T03:52:17.948Z,22.92
2023-04-30T03:54:45.649Z,21.20
2023-04-30T03:57:14.042Z,21.70
2023-04-30T03:59:42.239Z,21.90
2023-04-30T04:02:10.419Z,17.92
2023-04-30T04:04:38.132Z,24.65
2023-04-30T04:07:08.480Z,25.63
2023-04-30T04:09:36.935Z,22.40
2023-04-30T04:12:08.651Z,21.10
2023-04-30T04:14:37.615Z,26.63
2023-04-30T04:17:08.275Z,20.13
2023-04-30T04:19:35.920Z,18.65
2023-04-30T04:22:04.714Z,19.98
2023-04-30T04:24:32.394Z,22.50
2023-04-30T04:27:04.335Z,21.98
2023-04-30T04:29:33.647Z,19.40
2023-04-30T04:32:02.993Z,21.95
2023-04-30T04:34:31.752Z,21.85
2023-04-30T04:36:59.680Z,21.60
2023-04-30T04:39:27.932Z,18.63
2023-04-30T04:41:55.866Z,18.50
2023-04-30T04:44:23.630Z,22.38
2023-04-30T04:46:54.249Z,19.10
2023-04-30T04:49:22.433Z,21.08
2023-04-30T04:51:52.492Z,22.73
2023-04-30T04:54:20.244Z,24.17
2023-04-30T04:56:49.958Z,21.67
2023-04-30T04:59:19.398Z,20.27
2023-04-30T05:01:48.673Z,24.73
2023-04-30T05:04:17.985Z,22.83
2023-04-30T05:06:47.752Z,22.08
2023-04-30T05:09:17.596Z,24.67
2023-04-30T05:11:48.751Z,23.58
2023-04-30T05:14:17.203Z,24.08
2023-04-30T05:16:45.958Z,23.35
2023-04-30T05:19:22.494Z,22.98
2023-04-30T05:21:51.417Z,20.90
2023-04-30T05:24:19.622Z,26.73
2023-04-30T05:26:50.502Z,21.08
2023-04-30T05:29:20.091Z,22.92
2023-04-30T05:31:53.266Z,25.88
2023-04-30T05:34:21.529Z,24.85
2023-04-30T05:36:49.355Z,24.50
2023-04-30T05:39:17.961Z,22.05
2023-04-30T05:41:45.447Z,24.92
2023-04-30T05:44:13.117Z,23.08
2023-04-30T05:46:41.017Z,23.45
2023-04-30T05:49:08.456Z,23.95
2023-04-30T05:51:36.275Z,20.52
2023-04-30T05:54:03.950Z,22.67
2023-04-30T05:56:31.509Z,21.15
2023-04-30T05:58:59.100Z,22.88
2023-04-30T06:01:29.005Z,26.90
2023-04-30T06:03:56.844Z,21.92
2023-04-30T06:06:24.878Z,23.13
2023-04-30T06:08:52.441Z,23.77
2023-04-30T06:11:20.308Z,17.63
2023-04-30T06:13:51.054Z,24.92
2023-04-30T06:16:19.873Z,15.80
2023-04-30T06:18:48.294Z,20.17
2023-04-30T06:21:16.074Z,19.27
2023-04-30T06:23:48.088Z,20.27
2023-04-30T06:26:15.650Z,20.15
2023-04-30T06:28:43.369Z,16.83
2023-04-30T06:31:11.729Z,16.05
2023-04-30T06:33:39.607Z,15.48
2023-04-30T06:36:08.106Z,16.48
2023-04-30T06:38:35.788Z,16.30
2023-04-30T06:41:03.517Z,15.63
2023-04-30T06:43:31.273Z,17.40
2023-04-30T06:45:59.042Z,15.93
2023-04-30T06:48:27.983Z,11.73
2023-04-30T06:50:55.854Z,17.40
2023-04-30T06:53:23.546Z,14.90
2023-04-30T06:55:51.678Z,15.20
2023-04-30T06:58:20.477Z,13.98
2023-04-30T07:00:54.946Z,15.43
2023-04-30T07:03:23.352Z,20.42
2023-04-30T07:05:51.747Z,16.52
2023-04-30T07:08:19.589Z,19.13
2023-04-30T07:10:49.888Z,15.00
2023-04-30T07:15:51.886Z,16.63
2023-04-30T07:18:19.995Z,13.98
2023-04-30T07:20:48.930Z,19.55
2023-04-30T07:23:17.341Z,18.60
2023-04-30T07:25:45.002Z,17.60
2023-04-30T07:28:12.642Z,14.73
2023-04-30T07:30:42.903Z,15.80
2023-04-30T07:33:10.583Z,13.05
2023-04-30T07:35:59.009Z,17.42
2023-04-30T07:38:26.966Z,18.50
2023-04-30T07:40:54.726Z,14.95
2023-04-30T07:43:22.275Z,15.23
2023-04-30T07:45:50.150Z,15.15
2023-04-30T07:48:18.615Z,14.48
2023-04-30T07:50:50.741Z,12.65
2023-04-30T07:53:20.500Z,11.93
2023-04-30T07:55:49.146Z,16.98
2023-04-30T07:58:45.661Z,18.75
2023-04-30T08:01:09.510Z,13.93
2023-04-30T08:03:37.653Z,15.43
2023-04-30T08:06:07.230Z,12.38
2023-04-30T08:08:35.043Z,11.40
2023-04-30T08:11:02.936Z,14.77
2023-04-30T08:13:30.970Z,12.68
2023-04-30T08:15:58.909Z,11.15
2023-04-30T08:18:26.982Z,12.35
2023-04-30T08:20:54.547Z,11.70
2023-04-30T08:23:22.099Z,13.68
2023-04-30T08:25:49.798Z,10.70
2023-04-30T08:28:18.384Z,14.73
2023-04-30T08:30:45.909Z,11.88
2023-04-30T08:33:14.792Z,10.48
2023-04-30T08:35:42.551Z,10.43
2023-04-30T08:38:10.410Z,12.27
2023-04-30T08:40:50.919Z,9.60
2023-04-30T08:43:20.568Z,10.30
2023-04-30T08:45:52.325Z,15.00
2023-04-30T08:48:20.487Z,8.80
2023-04-30T08:50:49.518Z,10.52
2023-04-30T08:53:18.867Z,9.40
2023-04-30T08:55:47.409Z,10.10
2023-04-30T08:58:15.694Z,8.80
2023-04-30T09:00:43.206Z,11.35
2023-04-30T09:03:10.950Z,9.10
2023-04-30T09:05:38.840Z,8.73
2023-04-30T09:08:08.897Z,9.80
2023-04-30T09:10:39.910Z,11.18
2023-04-30T09:13:12.113Z,10.82
2023-04-30T09:15:45.832Z,11.65
2023-04-30T09:18:19.411Z,8.27
2023-04-30T09:20:57.822Z,7.68
2023-04-30T09:23:25.925Z,7.32
2023-04-30T09:25:53.892Z,9.45
2023-04-30T09:28:29.825Z,7.00
2023-04-30T09:30:58.880Z,6.53
2023-04-30T09:33:26.659Z,7.97
2023-04-30T09:35:55.078Z,8.27
2023-04-30T09:38:30.577Z,8.23
2023-04-30T09:41:02.102Z,8.77
2023-04-30T09:43:30.229Z,6.50
2023-04-30T09:45:59.276Z,11.38
2023-04-30T09:48:28.712Z,7.55
2023-04-30T09:50:57.033Z,9.37
2023-04-30T09:53:24.478Z,8.25
2023-04-30T09:55:52.641Z,9.73
2023-04-30T09:58:20.750Z,7.13
2023-04-30T10:00:49.670Z,9.07
2023-04-30T10:03:18.711Z,6.90
2023-04-30T10:05:48.848Z,9.38
2023-04-30T10:08:22.918Z,5.00
2023-04-30T10:10:54.977Z,7.88
2023-04-30T10:13:22.762Z,8.63
2023-04-30T10:15:53.242Z,6.10
2023-04-30T10:18:35.157Z,7.18
2023-04-30T10:21:12.758Z,7.90
2023-04-30T10:23:43.713Z,6.18
2023-04-30T10:26:18.742Z,7.70
2023-04-30T10:28:47.212Z,8.23
2023-04-30T10:31:15.338Z,3.80
2023-04-30T10:33:50.243Z,6.57
2023-04-30T10:36:32.382Z,5.97
2023-04-30T10:39:00.512Z,8.90
2023-04-30T10:41:29.549Z,6.10
2023-04-30T10:44:02.568Z,7.28
2023-04-30T10:46:30.579Z,8.90
2023-04-30T10:49:01.487Z,5.38
2023-04-30T10:51:48.899Z,6.72
2023-04-30T10:54:20.154Z,6.60
2023-04-30T10:56:50.918Z,4.13
2023-04-30T10:59:20.147Z,5.25
2023-04-30T11:02:01.690Z,6.82
2023-04-30T11:04:30.228Z,8.57
2023-04-30T11:07:10.824Z,5.05
2023-04-30T11:09:42.744Z,4.82
2023-04-30T11:12:20.285Z,4.20
2023-04-30T11:14:48.867Z,3.83
2023-04-30T11:17:23.660Z,4.22
2023-04-30T11:19:52.597Z,6.28
2023-04-30T11:22:22.589Z,5.32
2023-04-30T11:24:54.157Z,3.95
2023-04-30T11:27:25.904Z,4.65
2023-04-30T11:29:54.419Z,5.20
2023-04-30T11:32:23.402Z,5.63
2023-04-30T11:34:52.164Z,6.28
2023-04-30T11:37:22.031Z,4.80
2023-04-30T11:39:51.450Z,5.25
2023-04-30T11:42:21.689Z,6.07
2023-04-30T11:47:18.422Z,5.35
2023-04-30T11:49:47.448Z,5.40
2023-04-30T11:52:15.129Z,7.82
2023-04-30T11:54:42.848Z,4.78
2023-04-30T11:57:10.564Z,6.18
2023-04-30T11:59:44.589Z,14.18
2023-04-30T12:02:15.473Z,6.18
2023-04-30T12:04:48.825Z,7.10
2023-04-30T12:07:18.239Z,7.00
2023-04-30T12:09:53.237Z,5.27
2023-04-30T12:12:27.975Z,7.25
2023-04-30T12:14:56.500Z,6.85
2023-04-30T12:17:35.069Z,6.57
2023-04-30T12:20:02.992Z,7.40
2023-04-30T12:22:30.870Z,7.47
2023-04-30T12:25:00.765Z,5.75
2023-04-30T12:27:29.796Z,6.50
2023-04-30T12:29:58.044Z,7.13
2023-04-30T12:32:26.309Z,6.30
2023-04-30T12:34:59.400Z,7.07
2023-04-30T12:37:27.776Z,8.50
2023-04-30T12:39:56.627Z,7.78
2023-04-30T12:42:26.205Z,6.57
2023-04-30T12:44:53.782Z,6.85
2023-04-30T12:47:21.435Z,4.25
2023-04-30T12:49:50.245Z,4.90
2023-04-30T12:52:18.761Z,5.55
2023-04-30T12:54:49.885Z,5.03
2023-04-30T12:57:18.500Z,5.80
2023-04-30T12:59:56.074Z,3.85
2023-04-30T13:02:25.919Z,6.68
2023-04-30T13:04:53.765Z,4.97
2023-04-30T13:07:21.692Z,5.20
2023-04-30T13:09:50.535Z,7.78
2023-04-30T13:12:19.511Z,5.10
2023-04-30T13:14:49.981Z,8.25
2023-04-30T13:17:18.576Z,4.80
2023-04-30T13:19:47.050Z,4.00
2023-04-30T13:22:14.766Z,4.00
2023-04-30T13:24:42.463Z,6.40
2023-04-30T13:27:10.156Z,6.72
2023-04-30T13:29:37.664Z,2.60
2023-04-30T13:32:07.138Z,2.42
2023-04-30T13:34:34.616Z,3.33
2023-04-30T13:37:02.619Z,5.80
2023-04-30T13:39:33.029Z,3.22
2023-04-30T13:42:01.480Z,3.80
2023-04-30T13:44:29.094Z,3.78
2023-04-30T13:46:56.868Z,5.22
2023-04-30T13:49:24.757Z,2.58
2023-04-30T13:51:52.352Z,4.15
2023-04-30T13:54:23.046Z,3.03
2023-04-30T13:56:50.594Z,3.08
2023-04-30T13:59:20.292Z,5.25
2023-04-30T14:01:48.717Z,4.97
2023-04-30T14:04:18.818Z,2.35
2023-04-30T14:06:49.164Z,2.88
2023-04-30T14:11:49.707Z,2.15
2023-04-30T14:14:18.770Z,1.42
2023-04-30T14:16:48.959Z,7.80
2023-04-30T14:19:18.493Z,2.63
2023-04-30T14:21:48.023Z,1.67
2023-04-30T14:24:17.822Z,2.33
2023-04-30T14:26:46.065Z,1.88
2023-04-30T14:29:21.558Z,3.22
2023-04-30T14:31:49.930Z,3.63
2023-04-30T14:34:20.384Z,2.97
2023-04-30T14:36:48.902Z,3.55
2023-04-30T14:39:17.278Z,3.80
2023-04-30T14:41:45.461Z,2.92
2023-04-30T14:44:13.571Z,1.95
2023-04-30T14:46:41.074Z,1.13
2023-04-30T14:49:08.730Z,2.33
2023-04-30T14:51:36.575Z,1.08
2023-04-30T14:54:04.102Z,1.85
2023-04-30T14:56:32.554Z,4.45
2023-04-30T14:59:00.697Z,2.58
2023-04-30T15:01:31.378Z,3.25
2023-04-30T15:04:02.315Z,3.70
2023-04-30T15:06:30.188Z,2.15
2023-04-30T15:08:58.180Z,3.05
2023-04-30T15:11:26.564Z,3.20
2023-04-30T15:13:56.897Z,3.03
2023-04-30T15:16:25.854Z,2.60
2023-04-30T15:18:54.556Z,2.95
2023-04-30T15:21:22.231Z,4.05
2023-04-30T15:23:51.066Z,4.45
2023-04-30T15:26:22.271Z,3.47
2023-04-30T15:28:51.877Z,1.10
2023-04-30T15:31:19.767Z,2.45
2023-04-30T15:33:49.422Z,3.20
2023-04-30T15:36:19.232Z,2.43
2023-04-30T15:38:47.984Z,3.75
2023-04-30T15:41:19.533Z,3.80
2023-04-30T15:43:50.139Z,1.65
2023-04-30T15:46:19.192Z,2.72
2023-04-30T15:48:48.109Z,3.95
2023-04-30T15:51:17.559Z,3.63
2023-04-30T15:53:49.828Z,2.30
2023-04-30T15:56:20.440Z,1.38
2023-04-30T15:58:48.550Z,1.92
2023-04-30T16:01:17.641Z,3.22
2023-04-30T16:03:45.752Z,2.63
2023-04-30T16:06:14.438Z,2.97
2023-04-30T16:08:42.897Z,1.08
2023-04-30T16:11:10.863Z,1.20
2023-04-30T16:13:38.310Z,1.85
2023-04-30T16:16:08.584Z,3.17
2023-04-30T16:21:05.599Z,1.35
2023-04-30T16:23:33.276Z,3.13
2023-04-30T16:26:01.264Z,1.42
2023-04-30T16:28:32.113Z,3.83
2023-04-30T16:33:28.853Z,2.50
2023-04-30T16:35:57.082Z,2.30
2023-04-30T16:38:25.341Z,2.22
2023-04-30T16:40:54.145Z,2.60
2023-04-30T16:43:23.127Z,3.20
2023-04-30T16:45:51.112Z,2.80
2023-04-30T16:48:19.859Z,1.45
2023-04-30T16:50:52.181Z,1.38
2023-04-30T16:53:21.907Z,1.40
2023-04-30T16:55:52.218Z,3.65
2023-04-30T16:58:20.538Z,1.05
2023-04-30T17:00:56.514Z,2.30
2023-04-30T17:03:24.921Z,3.13
2023-04-30T17:05:54.549Z,1.95
2023-04-30T17:08:22.349Z,6.05
2023-04-30T17:10:50.003Z,2.28
2023-04-30T17:13:20.528Z,1.08
2023-04-30T17:15:51.974Z,1.75
2023-04-30T17:18:19.926Z,4.70
2023-04-30T17:20:49.839Z,1.20
2023-04-30T17:23:19.207Z,2.45
2023-04-30T17:25:50.256Z,2.00
2023-04-30T17:28:18.874Z,6.32
2023-04-30T17:30:47.962Z,2.05
2023-04-30T17:33:15.722Z,1.83
2023-04-30T17:35:51.388Z,3.92
2023-04-30T17:38:20.603Z,1.65
2023-04-30T17:40:49.554Z,1.83
2023-04-30T17:43:17.201Z,2.20
2023-04-30T17:45:45.722Z,1.98
2023-04-30T17:48:13.545Z,1.00
2023-04-30T17:50:44.555Z,1.38
2023-04-30T17:53:12.326Z,3.03
2023-04-30T17:55:40.572Z,1.95
2023-04-30T17:58:12.461Z,0.93
2023-04-30T18:00:47.280Z,2.58
2023-04-30T18:05:45.267Z,3.83
2023-04-30T18:08:13.427Z,3.17
2023-04-30T18:10:41.194Z,4.45
2023-04-30T18:13:10.862Z,2.55
2023-04-30T18:15:38.736Z,2.45
2023-04-30T18:18:08.645Z,3.75
2023-04-30T18:20:36.475Z,4.03
2023-04-30T18:23:06.677Z,3.17
2023-04-30T18:25:36.981Z,4.50
2023-04-30T18:28:04.684Z,3.67
2023-04-30T18:30:35.130Z,4.45
2023-04-30T18:35:30.760Z,7.90
2023-04-30T18:37:58.556Z,0.95
2023-04-30T18:40:26.998Z,2.30
2023-04-30T18:42:56.915Z,1.92
2023-04-30T18:45:24.694Z,2.38
2023-04-30T18:47:52.899Z,3.35
2023-04-30T18:50:22.460Z,4.95
2023-04-30T18:52:50.350Z,3.20
2023-04-30T18:55:18.438Z,2.83
2023-04-30T18:57:48.562Z,2.80
2023-04-30T19:00:17.913Z,3.50
2023-04-30T19:02:48.692Z,1.60
2023-04-30T19:05:17.044Z,3.92
2023-04-30T19:07:45.360Z,4.78
2023-04-30T19:10:13.029Z,2.58
2023-04-30T19:12:41.497Z,5.47
2023-04-30T19:15:11.671Z,3.58
2023-04-30T19:17:42.071Z,3.72
2023-04-30T19:20:10.478Z,3.15
2023-04-30T19:22:38.570Z,3.75
2023-04-30T19:25:06.664Z,3.25
2023-04-30T19:27:34.275Z,2.75
2023-04-30T19:30:01.900Z,3.75
2023-04-30T19:32:29.700Z,3.53
2023-04-30T19:34:59.061Z,4.40
2023-04-30T19:37:26.972Z,2.65
2023-04-30T19:39:56.096Z,2.38
2023-04-30T19:42:23.939Z,2.72
2023-04-30T19:44:53.200Z,5.47
2023-04-30T19:47:20.932Z,4.72
2023-04-30T19:49:49.961Z,7.90
2023-04-30T19:52:18.570Z,3.30
2023-04-30T19:54:48.899Z,5.00
2023-04-30T19:57:18.942Z,4.28
2023-04-30T19:59:49.012Z,3.90
2023-04-30T20:02:24.198Z,4.78
2023-04-30T20:04:52.340Z,2.30
2023-04-30T20:07:20.538Z,3.83
2023-04-30T20:09:49.667Z,4.25
2023-04-30T20:12:18.096Z,3.63
2023-04-30T20:14:47.606Z,2.47
2023-04-30T20:17:15.835Z,2.67
2023-04-30T20:19:44.453Z,3.13
2023-04-30T20:22:14.002Z,4.28
2023-04-30T20:24:45.080Z,3.05
2023-04-30T20:27:13.343Z,3.20
2023-04-30T20:29:44.586Z,6.10
2023-04-30T20:32:12.202Z,3.85
2023-04-30T20:34:40.014Z,3.15
2023-04-30T20:37:07.808Z,3.33
2023-04-30T20:39:38.458Z,4.35
2023-04-30T20:42:07.247Z,4.68
2023-04-30T20:44:34.970Z,4.47
2023-04-30T20:47:08.270Z,6.55
2023-04-30T20:49:38.134Z,7.05
2023-04-30T20:52:08.469Z,6.53
2023-04-30T20:54:36.117Z,2.90
2023-04-30T20:57:05.643Z,3.20
2023-04-30T20:59:33.493Z,8.98
2023-04-30T21:02:01.135Z,3.80
2023-04-30T21:04:29.006Z,4.35
2023-04-30T21:06:59.661Z,5.35
2023-04-30T21:09:27.333Z,7.15
2023-04-30T21:11:56.238Z,8.57
2023-04-30T21:14:24.284Z,5.18
2023-04-30T21:16:52.221Z,6.18
2023-04-30T21:19:19.994Z,6.38
2023-04-30T21:21:51.696Z,4.85
2023-04-30T21:24:19.779Z,6.82
2023-04-30T21:26:51.926Z,5.85
2023-04-30T21:29:19.818Z,5.38
2023-04-30T21:31:49.450Z,5.93
2023-04-30T21:34:19.928Z,3.60
2023-04-30T21:36:48.864Z,5.45
2023-04-30T21:39:20.155Z,7.25
2023-04-30T21:41:49.466Z,5.13
2023-04-30T21:44:18.349Z,3.13
2023-04-30T21:46:47.356Z,5.28
2023-04-30T21:49:17.533Z,6.13
2023-04-30T21:51:45.381Z,6.03
2023-04-30T21:54:14.047Z,5.68
2023-04-30T21:56:42.838Z,3.88
2023-04-30T21:59:10.441Z,6.70
2023-04-30T22:01:38.494Z,8.57
2023-04-30T22:04:10.325Z,4.70
2023-04-30T22:06:39.287Z,7.45
2023-04-30T22:09:10.187Z,7.22
2023-04-30T22:11:38.179Z,4.82
2023-04-30T22:14:13.374Z,4.13
2023-04-30T22:16:40.894Z,5.28
2023-04-30T22:19:09.350Z,7.32
2023-04-30T22:21:37.374Z,8.20
2023-04-30T22:24:08.342Z,5.35
2023-04-30T22:26:41.325Z,12.07
2023-04-30T22:29:09.701Z,4.28
2023-04-30T22:31:38.084Z,6.63
2023-04-30T22:34:08.411Z,5.65
2023-04-30T22:36:36.140Z,4.45
2023-04-30T22:39:04.876Z,5.55
2023-04-30T22:41:34.569Z,4.75
2023-04-30T22:44:03.357Z,3.47
2023-04-30T22:46:33.532Z,8.57
2023-04-30T22:49:01.858Z,8.63
2023-04-30T22:51:29.733Z,10.32
2023-04-30T22:53:57.397Z,7.93
2023-04-30T22:56:25.227Z,6.60
2023-04-30T22:58:53.235Z,8.23
2023-04-30T23:01:20.916Z,9.82
2023-04-30T23:03:50.018Z,12.32
2023-04-30T23:06:19.924Z,7.15
2023-04-30T23:08:53.277Z,10.18
2023-04-30T23:11:20.754Z,4.43
2023-04-30T23:13:50.037Z,7.85
2023-04-30T23:16:21.816Z,3.65
2023-04-30T23:18:50.169Z,9.27
2023-04-30T23:21:18.832Z,4.70
2023-04-30T23:23:48.145Z,6.95
2023-04-30T23:26:16.010Z,5.93
2023-04-30T23:28:45.246Z,8.37
2023-04-30T23:31:15.362Z,6.10
2023-04-30T23:33:43.559Z,4.75
2023-04-30T23:36:13.633Z,9.48
2023-04-30T23:38:43.038Z,5.15
2023-04-30T23:41:11.414Z,9.52
2023-04-30T23:43:41.070Z,7.65
2023-04-30T23:48:39.557Z,5.15
2023-04-30T23:51:09.189Z,7.60
2023-04-30T23:53:40.766Z,8.93
2023-04-30T23:56:08.621Z,9.90
2023-04-30T23:58:39.100Z,4.78
